createdAt,value
2018-09-06T00:01:50.232Z,16.67
2018-09-06T00:04:19.006Z,16.65
2018-09-06T00:06:47.986Z,16.68
2018-09-06T00:09:16.847Z,16.63
2018-09-06T00:11:45.653Z,16.63
2018-09-06T00:14:14.640Z,16.60
2018-09-06T00:16:43.548Z,16.67
2018-09-06T00:19:12.370Z,16.63
2018-09-06T00:21:41.448Z,16.62
2018-09-06T00:24:10.352Z,16.63
2018-09-06T00:26:39.224Z,16.57
2018-09-06T00:29:08.381Z,16.54
2018-09-06T00:31:37.218Z,16.61
2018-09-06T00:34:06.382Z,16.61
2018-09-06T00:36:35.580Z,16.60
2018-09-06T00:39:06.000Z,16.57
2018-09-06T00:41:34.880Z,16.54
2018-09-06T00:44:03.909Z,16.43
2018-09-06T00:46:32.776Z,16.49
2018-09-06T00:49:01.658Z,16.50
2018-09-06T00:51:30.711Z,16.46
2018-09-06T00:53:59.534Z,16.43
2018-09-06T00:56:28.700Z,16.39
2018-09-06T00:58:57.676Z,16.41
2018-09-06T01:01:26.454Z,16.42
2018-09-06T01:03:55.294Z,16.41
2018-09-06T01:06:24.431Z,16.43
2018-09-06T01:08:53.465Z,16.37
2018-09-06T01:11:22.346Z,16.36
2018-09-06T01:13:51.520Z,16.38
2018-09-06T01:16:20.345Z,16.33
2018-09-06T01:18:49.141Z,16.28
2018-09-06T01:21:18.073Z,16.37
2018-09-06T01:23:46.851Z,16.27
2018-09-06T01:26:15.640Z,16.24
2018-09-06T01:28:44.862Z,16.19
2018-09-06T01:31:13.698Z,16.13
2018-09-06T01:33:42.487Z,16.09
2018-09-06T01:36:18.505Z,16.04
2018-09-06T01:38:47.319Z,15.97
2018-09-06T01:41:16.122Z,15.90
2018-09-06T01:43:45.289Z,15.87
2018-09-06T01:46:14.388Z,15.81
2018-09-06T01:48:43.708Z,15.75
2018-09-06T01:51:12.726Z,15.73
2018-09-06T01:53:41.508Z,15.70
2018-09-06T01:56:10.322Z,15.70
2018-09-06T01:58:39.463Z,15.65
2018-09-06T02:01:08.227Z,15.64
2018-09-06T02:03:37.043Z,15.65
2018-09-06T02:06:07.671Z,15.64
2018-09-06T02:08:36.500Z,15.61
2018-09-06T02:11:05.332Z,15.61
2018-09-06T02:13:34.463Z,15.57
2018-09-06T02:16:03.335Z,15.58
2018-09-06T02:18:33.065Z,15.55
2018-09-06T02:21:02.665Z,15.53
2018-09-06T02:23:31.972Z,15.51
2018-09-06T02:26:01.001Z,15.51
2018-09-06T02:28:30.181Z,15.52
2018-09-06T02:30:58.970Z,15.51
2018-09-06T02:33:27.747Z,15.47
2018-09-06T02:35:56.745Z,15.43
2018-09-06T02:38:25.528Z,15.39
2018-09-06T02:40:54.365Z,15.35
2018-09-06T02:43:23.514Z,15.34
2018-09-06T02:45:52.288Z,15.31
2018-09-06T02:48:25.746Z,15.28
2018-09-06T02:51:00.259Z,15.26
2018-09-06T02:53:31.872Z,15.23
2018-09-06T02:56:00.876Z,15.25
2018-09-06T02:58:29.726Z,15.21
2018-09-06T03:00:59.312Z,15.15
2018-09-06T03:03:28.110Z,15.14
2018-09-06T03:05:57.014Z,15.14
2018-09-06T03:08:26.260Z,15.12
2018-09-06T03:10:58.435Z,15.12
2018-09-06T03:13:27.519Z,15.08
2018-09-06T03:15:56.476Z,15.06
2018-09-06T03:18:25.415Z,15.11
2018-09-06T03:20:54.336Z,15.06
2018-09-06T03:23:23.130Z,15.04
2018-09-06T03:25:52.252Z,15.02
2018-09-06T03:28:21.159Z,15.00
2018-09-06T03:30:50.192Z,14.88
2018-09-06T03:33:19.035Z,14.91
2018-09-06T03:35:48.231Z,14.90
2018-09-06T03:38:16.970Z,14.91
2018-09-06T03:40:45.756Z,14.92
2018-09-06T03:43:14.783Z,14.82
2018-09-06T03:45:49.663Z,14.85
2018-09-06T03:48:18.667Z,14.81
2018-09-06T03:50:47.481Z,14.83
2018-09-06T03:53:16.322Z,14.81
2018-09-06T03:55:45.276Z,14.80
2018-09-06T03:58:14.136Z,14.78
2018-09-06T04:00:42.942Z,14.84
2018-09-06T04:03:11.867Z,14.78
2018-09-06T04:05:40.723Z,14.80
2018-09-06T04:08:09.716Z,14.80
2018-09-06T04:10:38.768Z,14.74
2018-09-06T04:13:07.615Z,14.78
2018-09-06T04:15:36.380Z,14.75
2018-09-06T04:18:05.458Z,14.73
2018-09-06T04:20:34.345Z,14.70
2018-09-06T04:23:03.156Z,14.73
2018-09-06T04:25:32.255Z,14.70
2018-09-06T04:28:01.054Z,14.68
2018-09-06T04:30:30.243Z,14.71
2018-09-06T04:32:59.335Z,14.69
2018-09-06T04:35:28.152Z,14.67
2018-09-06T04:37:56.919Z,14.70
2018-09-06T04:40:26.013Z,14.66
2018-09-06T04:42:54.824Z,14.68
2018-09-06T04:45:23.582Z,14.64
2018-09-06T04:47:52.535Z,14.62
2018-09-06T04:50:21.402Z,14.62
2018-09-06T04:52:50.159Z,14.58
2018-09-06T04:55:19.329Z,14.64
2018-09-06T04:57:48.088Z,14.61
2018-09-06T05:00:16.864Z,14.61
2018-09-06T05:02:45.826Z,14.59
2018-09-06T05:05:14.592Z,14.58
2018-09-06T05:07:43.428Z,14.56
2018-09-06T05:10:12.412Z,14.59
2018-09-06T05:12:41.179Z,14.57
2018-09-06T05:15:09.952Z,14.61
2018-09-06T05:17:38.888Z,14.63
2018-09-06T05:20:07.739Z,14.64
2018-09-06T05:22:36.535Z,14.70
2018-09-06T05:25:05.794Z,14.74
2018-09-06T05:27:34.542Z,14.78
2018-09-06T05:30:03.440Z,14.85
2018-09-06T05:32:32.879Z,14.93
2018-09-06T05:35:01.681Z,14.86
2018-09-06T05:37:30.484Z,14.96
2018-09-06T05:39:59.582Z,14.98
2018-09-06T05:42:28.367Z,15.00
2018-09-06T05:45:03.555Z,15.04
2018-09-06T05:47:32.399Z,15.12
2018-09-06T05:50:01.153Z,15.16
2018-09-06T05:52:30.344Z,15.26
2018-09-06T05:54:59.185Z,15.37
2018-09-06T05:57:28.128Z,15.54
2018-09-06T05:59:57.230Z,15.69
2018-09-06T06:02:26.352Z,15.84
2018-09-06T06:04:55.143Z,15.91
2018-09-06T06:07:40.077Z,16.04
2018-09-06T06:10:08.860Z,16.14
2018-09-06T06:12:37.975Z,16.11
2018-09-06T06:15:06.920Z,16.30
2018-09-06T06:17:35.763Z,16.26
2018-09-06T06:20:04.677Z,16.37
2018-09-06T06:22:33.601Z,16.44
2018-09-06T06:25:02.388Z,16.68
2018-09-06T06:27:31.194Z,16.57
2018-09-06T06:30:00.464Z,16.67
2018-09-06T06:32:29.652Z,16.75
2018-09-06T06:34:58.499Z,16.87
2018-09-06T06:37:27.595Z,16.89
2018-09-06T06:39:56.453Z,16.75
2018-09-06T06:42:25.267Z,17.20
2018-09-06T06:44:59.396Z,17.41
2018-09-06T06:47:28.277Z,17.38
2018-09-06T06:49:57.066Z,17.37
2018-09-06T06:52:26.035Z,17.38
2018-09-06T06:54:54.926Z,17.66
2018-09-06T06:57:23.687Z,17.65
2018-09-06T06:59:52.588Z,17.83
2018-09-06T07:02:21.353Z,17.82
2018-09-06T07:04:50.191Z,17.71
2018-09-06T07:07:19.289Z,17.83
2018-09-06T07:09:48.050Z,17.73
2018-09-06T07:12:16.814Z,18.12
2018-09-06T07:14:45.787Z,17.85
2018-09-06T07:17:14.632Z,17.84
2018-09-06T07:19:43.424Z,18.08
2018-09-06T07:22:12.570Z,18.00
2018-09-06T07:24:41.347Z,18.30
2018-09-06T07:27:10.126Z,18.00
2018-09-06T07:29:39.352Z,18.14
2018-09-06T07:32:08.147Z,18.36
2018-09-06T07:34:36.942Z,18.61
2018-09-06T07:37:06.016Z,18.75
2018-09-06T07:39:34.776Z,19.13
2018-09-06T07:42:03.639Z,19.27
2018-09-06T07:44:32.712Z,19.51
2018-09-06T07:47:01.508Z,19.15
2018-09-06T07:49:30.302Z,19.39
2018-09-06T07:51:59.481Z,19.61
2018-09-06T07:54:28.312Z,19.56
2018-09-06T07:56:57.215Z,19.23
2018-09-06T07:59:26.217Z,19.76
2018-09-06T08:01:55.017Z,19.36
2018-09-06T08:04:23.873Z,19.43
2018-09-06T08:06:53.037Z,19.90
2018-09-06T08:09:21.863Z,20.08
2018-09-06T08:11:50.647Z,20.41
2018-09-06T08:14:19.700Z,20.57
2018-09-06T08:16:48.573Z,20.56
2018-09-06T08:19:17.400Z,20.57
2018-09-06T08:21:46.569Z,20.53
2018-09-06T08:24:15.404Z,20.71
2018-09-06T08:26:44.183Z,20.69
2018-09-06T08:29:13.368Z,21.01
2018-09-06T08:31:42.346Z,20.99
2018-09-06T08:34:11.141Z,21.14
2018-09-06T08:36:40.164Z,21.43
2018-09-06T08:39:10.616Z,21.77
2018-09-06T08:41:40.548Z,21.73
2018-09-06T08:44:09.960Z,21.72
2018-09-06T08:46:39.695Z,21.66
2018-09-06T08:49:08.632Z,21.44
2018-09-06T08:51:37.559Z,22.04
2018-09-06T08:54:06.507Z,22.23
2018-09-06T08:56:35.364Z,21.94
2018-09-06T08:59:04.586Z,22.13
2018-09-06T09:01:41.494Z,22.08
2018-09-06T09:04:10.863Z,22.33
2018-09-06T09:06:39.782Z,22.01
2018-09-06T09:09:12.735Z,22.03
2018-09-06T09:11:41.615Z,22.15
2018-09-06T09:14:10.575Z,22.21
2018-09-06T09:16:39.564Z,22.72
2018-09-06T09:19:08.578Z,22.39
2018-09-06T09:21:37.463Z,22.42
2018-09-06T09:24:06.875Z,22.39
2018-09-06T09:26:36.339Z,22.28
2018-09-06T09:29:05.318Z,21.87
2018-09-06T09:31:34.512Z,22.34
2018-09-06T09:34:03.397Z,22.52
2018-09-06T09:36:32.236Z,22.26
2018-09-06T09:39:01.611Z,22.39
2018-09-06T09:41:30.751Z,22.08
2018-09-06T09:43:59.639Z,22.02
2018-09-06T09:48:57.383Z,22.15
2018-09-06T09:51:26.210Z,22.19
2018-09-06T09:53:55.320Z,22.27
2018-09-06T09:56:24.761Z,22.58
2018-09-06T09:58:53.547Z,22.46
2018-09-06T10:01:29.090Z,22.40
2018-09-06T10:04:03.561Z,22.69
2018-09-06T10:06:38.351Z,22.84
2018-09-06T10:09:12.631Z,22.98
2018-09-06T10:11:41.682Z,23.10
2018-09-06T10:14:10.459Z,23.21
2018-09-06T10:16:39.359Z,23.40
2018-09-06T10:19:08.483Z,22.95
2018-09-06T10:21:37.277Z,23.20
2018-09-06T10:24:06.190Z,23.40
2018-09-06T10:26:35.824Z,23.55
2018-09-06T10:29:04.825Z,23.84
2018-09-06T10:31:34.152Z,23.52
2018-09-06T10:34:03.136Z,23.62
2018-09-06T10:36:32.335Z,23.78
2018-09-06T10:39:01.141Z,23.54
2018-09-06T10:41:30.338Z,23.72
2018-09-06T10:43:59.155Z,23.88
2018-09-06T10:46:27.979Z,24.26
2018-09-06T10:48:57.072Z,24.44
2018-09-06T10:51:25.970Z,24.55
2018-09-06T10:53:54.928Z,24.78
2018-09-06T10:56:23.957Z,24.16
2018-09-06T10:58:52.800Z,24.62
2018-09-06T11:01:22.943Z,24.81
2018-09-06T11:03:53.947Z,25.26
2018-09-06T11:06:23.867Z,25.45
2018-09-06T11:08:52.894Z,25.33
2018-09-06T11:11:21.933Z,25.31
2018-09-06T11:13:50.782Z,25.28
2018-09-06T11:16:20.018Z,25.18
2018-09-06T11:18:49.208Z,25.31
2018-09-06T11:21:18.144Z,25.27
2018-09-06T11:23:46.828Z,25.13
2018-09-06T11:26:15.748Z,25.30
2018-09-06T11:28:44.525Z,25.52
2018-09-06T11:31:13.381Z,25.51
2018-09-06T11:33:42.521Z,25.63
2018-09-06T11:36:11.314Z,25.63
2018-09-06T11:38:40.433Z,25.36
2018-09-06T11:41:09.775Z,25.18
2018-09-06T11:43:38.609Z,25.21
2018-09-06T11:46:13.601Z,25.53
2018-09-06T11:48:42.459Z,25.69
2018-09-06T11:51:11.296Z,25.63
2018-09-06T11:53:40.583Z,25.81
2018-09-06T11:56:09.532Z,26.01
2018-09-06T11:58:38.368Z,26.07
2018-09-06T12:01:07.631Z,26.22
2018-09-06T12:03:36.916Z,26.74
2018-09-06T12:06:05.902Z,26.58
2018-09-06T12:08:34.800Z,26.40
2018-09-06T12:11:03.643Z,27.05
2018-09-06T12:13:32.570Z,26.35
2018-09-06T12:16:01.375Z,26.18
2018-09-06T12:18:30.409Z,26.60
2018-09-06T12:20:59.359Z,26.52
2018-09-06T12:23:28.642Z,26.73
2018-09-06T12:25:57.485Z,27.12
2018-09-06T12:28:27.016Z,26.56
2018-09-06T12:30:57.157Z,26.75
2018-09-06T12:33:26.166Z,26.40
2018-09-06T12:35:55.057Z,26.68
2018-09-06T12:38:24.030Z,26.66
2018-09-06T12:40:52.871Z,27.05
2018-09-06T12:43:22.126Z,27.32
2018-09-06T12:45:51.314Z,27.36
2018-09-06T12:48:20.234Z,27.02
2018-09-06T12:50:49.322Z,27.24
2018-09-06T12:53:18.503Z,27.02
2018-09-06T12:55:47.511Z,26.62
2018-09-06T12:58:16.331Z,26.50
2018-09-06T13:00:46.776Z,26.65
2018-09-06T13:03:15.609Z,26.52
2018-09-06T13:05:44.762Z,26.37
2018-09-06T13:08:13.824Z,26.19
2018-09-06T13:10:42.659Z,26.27
2018-09-06T13:13:11.425Z,25.69
2018-09-06T13:15:40.277Z,25.81
2018-09-06T13:18:09.137Z,25.88
2018-09-06T13:20:38.042Z,25.32
2018-09-06T13:23:06.881Z,25.57
2018-09-06T13:25:35.774Z,25.37
2018-09-06T13:28:04.627Z,25.39
2018-09-06T13:30:33.416Z,25.24
2018-09-06T13:33:02.327Z,25.25
2018-09-06T13:35:31.210Z,24.98
2018-09-06T13:37:59.987Z,25.00
2018-09-06T13:40:28.753Z,24.91
2018-09-06T13:42:57.632Z,24.88
2018-09-06T13:45:26.500Z,24.95
2018-09-06T13:47:55.280Z,24.78
2018-09-06T13:50:24.121Z,24.07
2018-09-06T13:52:52.968Z,23.88
2018-09-06T13:55:22.072Z,23.29
2018-09-06T13:57:51.048Z,23.12
2018-09-06T14:00:19.842Z,22.65
2018-09-06T14:02:49.005Z,22.85
2018-09-06T14:05:17.912Z,22.56
2018-09-06T14:07:46.693Z,22.33
2018-09-06T14:10:15.675Z,21.75
2018-09-06T14:12:44.472Z,21.74
2018-09-06T14:15:13.279Z,21.75
2018-09-06T14:17:42.356Z,21.51
2018-09-06T14:20:11.412Z,21.36
2018-09-06T14:22:40.235Z,21.31
2018-09-06T14:25:09.197Z,21.46
2018-09-06T14:27:38.025Z,21.14
2018-09-06T14:30:06.956Z,21.17
2018-09-06T14:32:35.788Z,21.11
2018-09-06T14:35:04.717Z,20.97
2018-09-06T14:37:33.491Z,21.08
2018-09-06T14:40:02.407Z,21.03
2018-09-06T14:42:31.154Z,21.11
2018-09-06T14:45:00.331Z,21.03
2018-09-06T14:47:29.160Z,20.85
2018-09-06T14:49:58.395Z,20.73
2018-09-06T14:52:27.250Z,20.61
2018-09-06T14:54:56.080Z,20.69
2018-09-06T14:57:24.913Z,20.72
2018-09-06T14:59:54.128Z,20.72
2018-09-06T15:02:22.955Z,20.30
2018-09-06T15:04:51.728Z,20.48
2018-09-06T15:07:20.820Z,20.21
2018-09-06T15:09:49.586Z,20.41
2018-09-06T15:12:18.455Z,20.30
2018-09-06T15:14:47.265Z,20.10
2018-09-06T15:17:16.114Z,19.96
2018-09-06T15:19:44.955Z,20.12
2018-09-06T15:22:13.796Z,20.08
2018-09-06T15:24:42.644Z,19.94
2018-09-06T15:27:11.460Z,19.83
2018-09-06T15:29:40.502Z,19.82
2018-09-06T15:32:09.331Z,19.70
2018-09-06T15:34:38.160Z,19.55
2018-09-06T15:37:07.179Z,19.78
2018-09-06T15:39:35.948Z,19.77
2018-09-06T15:42:04.832Z,19.76
2018-09-06T15:44:33.583Z,19.82
2018-09-06T15:47:02.343Z,19.83
2018-09-06T15:49:31.262Z,19.73
2018-09-06T15:52:00.076Z,19.82
2018-09-06T15:54:28.864Z,19.78
2018-09-06T15:56:57.643Z,19.67
2018-09-06T15:59:26.488Z,19.52
2018-09-06T16:01:55.315Z,19.51
2018-09-06T16:04:24.135Z,19.57
2018-09-06T16:06:52.911Z,19.40
2018-09-06T16:09:23.524Z,19.45
2018-09-06T16:11:52.340Z,19.28
2018-09-06T16:14:21.528Z,19.42
2018-09-06T16:16:50.343Z,19.23
2018-09-06T16:19:19.607Z,19.34
2018-09-06T16:21:48.394Z,19.42
2018-09-06T16:24:17.212Z,19.19
2018-09-06T16:26:46.144Z,19.03
2018-09-06T16:29:15.800Z,19.07
2018-09-06T16:31:44.590Z,18.64
2018-09-06T16:34:13.509Z,18.83
2018-09-06T16:36:42.294Z,18.86
2018-09-06T16:39:13.155Z,18.75
2018-09-06T16:41:42.112Z,18.84
2018-09-06T16:44:10.873Z,18.84
2018-09-06T16:46:39.707Z,18.87
2018-09-06T16:49:08.451Z,18.79
2018-09-06T16:51:37.383Z,18.75
2018-09-06T16:54:06.168Z,18.66
2018-09-06T16:56:35.395Z,18.72
2018-09-06T16:59:04.232Z,18.43
2018-09-06T17:01:33.120Z,18.44
2018-09-06T17:04:04.095Z,18.67
2018-09-06T17:06:32.911Z,18.61
2018-09-06T17:09:01.688Z,18.81
2018-09-06T17:11:31.928Z,18.67
2018-09-06T17:14:00.742Z,18.66
2018-09-06T17:16:29.655Z,18.69
2018-09-06T17:18:58.750Z,18.54
2018-09-06T17:21:27.544Z,18.55
2018-09-06T17:23:56.360Z,18.53
2018-09-06T17:26:25.416Z,18.42
2018-09-06T17:28:54.229Z,18.37
2018-09-06T17:31:23.016Z,18.58
2018-09-06T17:33:51.866Z,18.58
2018-09-06T17:36:20.648Z,18.45
2018-09-06T17:38:49.709Z,18.54
2018-09-06T17:41:18.531Z,18.43
2018-09-06T17:43:47.308Z,18.71
2018-09-06T17:46:16.268Z,18.56
2018-09-06T17:48:45.092Z,18.56
2018-09-06T17:51:13.944Z,18.59
2018-09-06T17:53:42.909Z,18.74
2018-09-06T17:56:11.671Z,18.65
2018-09-06T17:58:40.584Z,18.68
2018-09-06T18:01:24.235Z,18.56
2018-09-06T18:03:53.328Z,18.55
2018-09-06T18:06:22.133Z,18.46
2018-09-06T18:08:51.345Z,18.30
2018-09-06T18:11:20.259Z,18.18
2018-09-06T18:13:49.103Z,18.34
2018-09-06T18:16:18.566Z,18.14
2018-09-06T18:18:47.511Z,18.14
2018-09-06T18:21:16.430Z,18.18
2018-09-06T18:23:45.611Z,18.04
2018-09-06T18:26:14.480Z,18.09
2018-09-06T18:28:43.564Z,18.18
2018-09-06T18:31:13.006Z,18.35
2018-09-06T18:33:41.792Z,18.28
2018-09-06T18:36:10.779Z,18.30
2018-09-06T18:38:40.087Z,18.27
2018-09-06T18:41:09.447Z,18.18
2018-09-06T18:43:38.270Z,18.28
2018-09-06T18:46:07.359Z,18.25
2018-09-06T18:48:36.151Z,18.24
2018-09-06T18:51:05.001Z,18.17
2018-09-06T18:53:34.368Z,18.14
2018-09-06T18:56:03.415Z,18.10
2018-09-06T18:58:32.314Z,18.23
2018-09-06T19:01:01.446Z,18.22
2018-09-06T19:03:30.243Z,18.23
2018-09-06T19:05:59.108Z,18.27
2018-09-06T19:08:28.044Z,18.32
2018-09-06T19:10:56.816Z,18.24
2018-09-06T19:13:25.599Z,18.18
2018-09-06T19:15:54.561Z,18.03
2018-09-06T19:18:23.478Z,18.15
2018-09-06T19:20:52.252Z,18.15
2018-09-06T19:23:21.327Z,17.96
2018-09-06T19:25:50.152Z,18.02
2018-09-06T19:28:18.903Z,18.08
2018-09-06T19:30:48.045Z,17.87
2018-09-06T19:33:16.809Z,17.82
2018-09-06T19:35:45.572Z,17.92
2018-09-06T19:38:14.725Z,17.78
2018-09-06T19:40:43.479Z,18.17
2018-09-06T19:43:12.676Z,17.96
2018-09-06T19:45:42.934Z,17.96
2018-09-06T19:48:11.701Z,17.97
2018-09-06T19:50:40.455Z,17.78
2018-09-06T19:53:09.750Z,17.67
2018-09-06T19:55:38.673Z,18.03
2018-09-06T19:58:07.443Z,18.31
2018-09-06T20:00:36.596Z,18.14
2018-09-06T20:03:05.375Z,18.02
2018-09-06T20:05:34.136Z,17.83
2018-09-06T20:08:03.130Z,17.73
2018-09-06T20:10:31.926Z,17.42
2018-09-06T20:13:00.804Z,17.52
2018-09-06T20:15:29.705Z,17.57
2018-09-06T20:17:58.459Z,17.55
2018-09-06T20:20:27.284Z,17.58
2018-09-06T20:22:56.424Z,17.60
2018-09-06T20:25:25.171Z,17.47
2018-09-06T20:27:53.936Z,17.58
2018-09-06T20:30:23.194Z,17.73
2018-09-06T20:32:52.008Z,17.64
2018-09-06T20:35:21.105Z,17.62
2018-09-06T20:37:54.200Z,17.56
2018-09-06T20:40:22.980Z,17.61
2018-09-06T20:42:51.818Z,17.53
2018-09-06T20:45:26.999Z,17.53
2018-09-06T20:47:55.775Z,17.51
2018-09-06T20:50:24.535Z,17.74
2018-09-06T20:52:53.675Z,17.67
2018-09-06T20:55:22.478Z,18.03
2018-09-06T20:57:51.324Z,18.12
2018-09-06T21:00:20.239Z,18.17
2018-09-06T21:02:49.095Z,17.84
2018-09-06T21:05:17.919Z,18.07
2018-09-06T21:07:47.092Z,18.10
2018-09-06T21:10:15.827Z,18.14
2018-09-06T21:12:44.624Z,18.20
2018-09-06T21:15:13.620Z,18.14
2018-09-06T21:17:42.416Z,18.35
2018-09-06T21:20:11.178Z,18.32
2018-09-06T21:22:40.274Z,18.09
2018-09-06T21:25:09.092Z,18.17
2018-09-06T21:27:38.112Z,18.29
2018-09-06T21:30:07.521Z,18.34
2018-09-06T21:32:36.359Z,17.76
2018-09-06T21:35:05.467Z,18.13
2018-09-06T21:37:35.113Z,18.07
2018-09-06T21:40:04.303Z,17.95
2018-09-06T21:42:33.115Z,18.08
2018-09-06T21:45:01.940Z,17.76
2018-09-06T21:47:30.817Z,17.98
2018-09-06T21:49:59.592Z,18.03
2018-09-06T21:52:28.528Z,18.07
2018-09-06T21:54:57.415Z,18.00
2018-09-06T21:57:26.208Z,17.95
2018-09-06T21:59:55.065Z,17.96
2018-09-06T22:02:29.422Z,17.74
2018-09-06T22:04:58.256Z,17.75
2018-09-06T22:07:27.532Z,17.92
2018-09-06T22:09:56.296Z,17.96
2018-09-06T22:12:25.118Z,17.99
2018-09-06T22:14:53.948Z,18.05
2018-09-06T22:17:22.828Z,18.18
2018-09-06T22:19:51.710Z,18.00
2018-09-06T22:22:20.603Z,18.01
2018-09-06T22:24:49.457Z,18.04
2018-09-06T22:27:18.272Z,18.00
2018-09-06T22:29:47.221Z,18.05
2018-09-06T22:32:16.027Z,18.14
2018-09-06T22:34:44.880Z,18.06
2018-09-06T22:37:13.837Z,18.15
2018-09-06T22:39:42.675Z,18.12
2018-09-06T22:42:11.585Z,18.08
2018-09-06T22:44:40.455Z,18.09
2018-09-06T22:47:09.293Z,18.17
2018-09-06T22:49:38.080Z,18.10
2018-09-06T22:52:07.068Z,17.96
2018-09-06T22:54:35.931Z,17.86
2018-09-06T22:57:04.824Z,17.88
2018-09-06T22:59:33.655Z,17.98
2018-09-06T23:02:02.520Z,17.91
2018-09-06T23:04:31.328Z,17.98
2018-09-06T23:07:00.407Z,17.81
2018-09-06T23:09:29.255Z,17.85
2018-09-06T23:11:58.116Z,18.01
2018-09-06T23:14:26.935Z,17.79
2018-09-06T23:16:55.760Z,17.77
2018-09-06T23:19:24.638Z,17.91
2018-09-06T23:21:53.563Z,17.91
2018-09-06T23:24:22.375Z,17.93
2018-09-06T23:26:51.229Z,17.88
2018-09-06T23:29:20.035Z,17.88
2018-09-06T23:31:48.947Z,17.84
2018-09-06T23:34:18.071Z,17.79
2018-09-06T23:36:46.925Z,17.78
2018-09-06T23:39:15.819Z,17.67
2018-09-06T23:41:44.606Z,17.61
2018-09-06T23:44:13.543Z,17.52
2018-09-06T23:46:42.588Z,17.49
2018-09-06T23:49:11.479Z,17.35
2018-09-06T23:51:40.629Z,17.55
2018-09-06T23:54:09.450Z,17.43
2018-09-06T23:56:38.280Z,17.29
2018-09-06T23:59:07.178Z,17.35
